sensor_id;sensor_type;location;lat;lon;timestamp;temperature;humidity
16879;DHT22;8556;52.218;9.884;2023-08-12T00:00:39;18.60;99.90
16879;DHT22;8556;52.218;9.884;2023-08-12T00:03:06;18.50;99.90
16879;DHT22;8556;52.218;9.884;2023-08-12T00:05:34;18.30;99.90
16879;DHT22;8556;52.218;9.884;2023-08-12T00:08:02;18.10;99.90
16879;DHT22;8556;52.218;9.884;2023-08-12T00:10:29;18.00;99.90
16879;DHT22;8556;52.218;9.884;2023-08-12T00:12:56;18.00;99.90
16879;DHT22;8556;52.218;9.884;2023-08-12T00:15:25;18.20;99.90
16879;DHT22;8556;52.218;9.884;2023-08-12T00:17:52;18.20;99.90
16879;DHT22;8556;52.218;9.884;2023-08-12T00:20:19;18.20;99.90
16879;DHT22;8556;52.218;9.884;2023-08-12T00:22:45;18.20;99.90
16879;DHT22;8556;52.218;9.884;2023-08-12T00:25:12;18.10;99.90
16879;DHT22;8556;52.218;9.884;2023-08-12T00:27:39;18.00;99.90
16879;DHT22;8556;52.218;9.884;2023-08-12T00:30:06;18.00;99.90
16879;DHT22;8556;52.218;9.884;2023-08-12T00:32:35;17.90;99.90
16879;DHT22;8556;52.218;9.884;2023-08-12T00:35:02;18.10;99.90
16879;DHT22;8556;52.218;9.884;2023-08-12T00:37:29;18.20;99.90
16879;DHT22;8556;52.218;9.884;2023-08-12T00:39:56;18.40;99.90
16879;DHT22;8556;52.218;9.884;2023-08-12T00:42:23;18.60;99.90
16879;DHT22;8556;52.218;9.884;2023-08-12T00:44:50;18.70;99.90
16879;DHT22;8556;52.218;9.884;2023-08-12T00:47:16;18.90;99.90
16879;DHT22;8556;52.218;9.884;2023-08-12T00:49:46;19.00;99.90
16879;DHT22;8556;52.218;9.884;2023-08-12T00:52:14;18.90;99.90
16879;DHT22;8556;52.218;9.884;2023-08-12T00:54:42;19.00;99.90
16879;DHT22;8556;52.218;9.884;2023-08-12T00:57:09;18.90;99.90
16879;DHT22;8556;52.218;9.884;2023-08-12T00:59:36;19.00;99.90
16879;DHT22;8556;52.218;9.884;2023-08-12T01:02:03;19.00;99.90
16879;DHT22;8556;52.218;9.884;2023-08-12T01:04:31;18.90;99.90
16879;DHT22;8556;52.218;9.884;2023-08-12T01:06:59;18.80;99.90
16879;DHT22;8556;52.218;9.884;2023-08-12T01:09:26;18.80;99.90
16879;DHT22;8556;52.218;9.884;2023-08-12T01:11:59;18.70;99.90
16879;DHT22;8556;52.218;9.884;2023-08-12T01:14:34;18.60;99.90
16879;DHT22;8556;52.218;9.884;2023-08-12T01:17:06;18.60;99.90
16879;DHT22;8556;52.218;9.884;2023-08-12T01:19:34;18.70;99.90
16879;DHT22;8556;52.218;9.884;2023-08-12T01:22:05;18.80;99.90
16879;DHT22;8556;52.218;9.884;2023-08-12T01:24:37;18.70;99.90
16879;DHT22;8556;52.218;9.884;2023-08-12T01:27:06;18.70;99.90
16879;DHT22;8556;52.218;9.884;2023-08-12T01:29:33;18.60;99.90
16879;DHT22;8556;52.218;9.884;2023-08-12T01:32:17;18.70;99.90
16879;DHT22;8556;52.218;9.884;2023-08-12T01:34:50;18.70;99.90
16879;DHT22;8556;52.218;9.884;2023-08-12T01:37:24;18.80;99.90
16879;DHT22;8556;52.218;9.884;2023-08-12T01:39:54;18.90;99.90
16879;DHT22;8556;52.218;9.884;2023-08-12T01:42:21;18.90;99.90
16879;DHT22;8556;52.218;9.884;2023-08-12T01:44:50;19.00;99.90
16879;DHT22;8556;52.218;9.884;2023-08-12T01:47:16;19.00;99.90
16879;DHT22;8556;52.218;9.884;2023-08-12T01:49:43;19.00;99.90
16879;DHT22;8556;52.218;9.884;2023-08-12T01:52:10;19.00;99.90
16879;DHT22;8556;52.218;9.884;2023-08-12T01:54:37;19.10;99.90
16879;DHT22;8556;52.218;9.884;2023-08-12T01:57:05;19.20;99.90
16879;DHT22;8556;52.218;9.884;2023-08-12T01:59:33;19.30;99.90
16879;DHT22;8556;52.218;9.884;2023-08-12T02:02:00;19.20;99.90
16879;DHT22;8556;52.218;9.884;2023-08-12T02:04:27;19.30;99.90
16879;DHT22;8556;52.218;9.884;2023-08-12T02:06:54;19.30;99.90
16879;DHT22;8556;52.218;9.884;2023-08-12T02:09:22;19.30;99.90
16879;DHT22;8556;52.218;9.884;2023-08-12T02:11:49;19.20;99.90
16879;DHT22;8556;52.218;9.884;2023-08-12T02:14:17;19.30;99.90
16879;DHT22;8556;52.218;9.884;2023-08-12T02:16:44;19.30;99.90
16879;DHT22;8556;52.218;9.884;2023-08-12T02:19:11;19.50;99.90
16879;DHT22;8556;52.218;9.884;2023-08-12T02:21:38;19.40;99.90
16879;DHT22;8556;52.218;9.884;2023-08-12T02:24:05;19.50;99.90
16879;DHT22;8556;52.218;9.884;2023-08-12T02:26:33;19.50;99.90
16879;DHT22;8556;52.218;9.884;2023-08-12T02:29:00;19.50;99.90
16879;DHT22;8556;52.218;9.884;2023-08-12T02:31:28;19.50;99.90
16879;DHT22;8556;52.218;9.884;2023-08-12T02:33:54;19.50;99.90
16879;DHT22;8556;52.218;9.884;2023-08-12T02:36:21;19.60;99.90
16879;DHT22;8556;52.218;9.884;2023-08-12T02:38:48;19.70;99.90
16879;DHT22;8556;52.218;9.884;2023-08-12T02:41:15;19.50;99.90
16879;DHT22;8556;52.218;9.884;2023-08-12T02:43:42;19.60;99.90
16879;DHT22;8556;52.218;9.884;2023-08-12T02:46:08;19.60;99.90
16879;DHT22;8556;52.218;9.884;2023-08-12T02:48:36;19.70;99.90
16879;DHT22;8556;52.218;9.884;2023-08-12T02:51:03;19.70;99.90
16879;DHT22;8556;52.218;9.884;2023-08-12T02:53:30;19.70;99.90
16879;DHT22;8556;52.218;9.884;2023-08-12T02:55:57;19.60;99.90
16879;DHT22;8556;52.218;9.884;2023-08-12T02:58:24;19.60;99.90
16879;DHT22;8556;52.218;9.884;2023-08-12T03:00:51;19.70;99.90
16879;DHT22;8556;52.218;9.884;2023-08-12T03:03:18;19.60;99.90
16879;DHT22;8556;52.218;9.884;2023-08-12T03:05:47;19.60;99.90
16879;DHT22;8556;52.218;9.884;2023-08-12T03:08:14;19.50;99.90
16879;DHT22;8556;52.218;9.884;2023-08-12T03:10:41;19.40;99.90
16879;DHT22;8556;52.218;9.884;2023-08-12T03:13:08;19.40;99.90
16879;DHT22;8556;52.218;9.884;2023-08-12T03:15:38;19.50;99.90
16879;DHT22;8556;52.218;9.884;2023-08-12T03:18:04;19.40;99.90
16879;DHT22;8556;52.218;9.884;2023-08-12T03:20:31;19.40;99.90
16879;DHT22;8556;52.218;9.884;2023-08-12T03:23:00;19.40;99.90
16879;DHT22;8556;52.218;9.884;2023-08-12T03:25:29;19.40;99.90
16879;DHT22;8556;52.218;9.884;2023-08-12T03:27:58;19.50;99.90
16879;DHT22;8556;52.218;9.884;2023-08-12T03:30:25;19.40;99.90
16879;DHT22;8556;52.218;9.884;2023-08-12T03:32:52;19.40;99.90
16879;DHT22;8556;52.218;9.884;2023-08-12T03:35:19;19.40;99.90
16879;DHT22;8556;52.218;9.884;2023-08-12T03:37:46;19.50;99.90
16879;DHT22;8556;52.218;9.884;2023-08-12T03:40:14;19.50;99.90
16879;DHT22;8556;52.218;9.884;2023-08-12T03:42:41;19.60;99.90
16879;DHT22;8556;52.218;9.884;2023-08-12T03:45:08;19.70;99.90
16879;DHT22;8556;52.218;9.884;2023-08-12T03:47:35;19.60;99.90
16879;DHT22;8556;52.218;9.884;2023-08-12T03:50:02;19.70;99.90
16879;DHT22;8556;52.218;9.884;2023-08-12T03:52:28;19.70;99.90
16879;DHT22;8556;52.218;9.884;2023-08-12T03:54:55;19.60;99.90
16879;DHT22;8556;52.218;9.884;2023-08-12T03:57:23;19.50;99.90
16879;DHT22;8556;52.218;9.884;2023-08-12T03:59:50;19.50;99.90
16879;DHT22;8556;52.218;9.884;2023-08-12T04:02:17;19.40;99.90
16879;DHT22;8556;52.218;9.884;2023-08-12T04:04:44;19.50;99.90
16879;DHT22;8556;52.218;9.884;2023-08-12T04:07:11;19.50;99.90
16879;DHT22;8556;52.218;9.884;2023-08-12T04:09:38;19.50;99.90
16879;DHT22;8556;52.218;9.884;2023-08-12T04:12:05;19.40;99.90
16879;DHT22;8556;52.218;9.884;2023-08-12T04:14:34;19.60;99.90
16879;DHT22;8556;52.218;9.884;2023-08-12T04:17:00;19.50;99.90
16879;DHT22;8556;52.218;9.884;2023-08-12T04:19:27;19.50;99.90
16879;DHT22;8556;52.218;9.884;2023-08-12T04:21:54;19.50;99.90
16879;DHT22;8556;52.218;9.884;2023-08-12T04:24:21;19.60;99.90
16879;DHT22;8556;52.218;9.884;2023-08-12T04:26:47;19.60;99.90
16879;DHT22;8556;52.218;9.884;2023-08-12T04:29:14;19.70;99.90
16879;DHT22;8556;52.218;9.884;2023-08-12T04:31:42;19.70;99.90
16879;DHT22;8556;52.218;9.884;2023-08-12T04:34:09;19.40;99.90
16879;DHT22;8556;52.218;9.884;2023-08-12T04:36:36;19.50;99.90
16879;DHT22;8556;52.218;9.884;2023-08-12T04:39:03;19.50;99.90
16879;DHT22;8556;52.218;9.884;2023-08-12T04:41:30;19.40;99.90
16879;DHT22;8556;52.218;9.884;2023-08-12T04:43:56;19.40;99.90
16879;DHT22;8556;52.218;9.884;2023-08-12T04:46:23;19.40;99.90
16879;DHT22;8556;52.218;9.884;2023-08-12T04:48:51;19.40;99.90
16879;DHT22;8556;52.218;9.884;2023-08-12T04:51:18;19.40;99.90
16879;DHT22;8556;52.218;9.884;2023-08-12T04:53:46;19.20;99.90
16879;DHT22;8556;52.218;9.884;2023-08-12T04:56:13;19.20;99.90
16879;DHT22;8556;52.218;9.884;2023-08-12T04:58:39;19.10;99.90
16879;DHT22;8556;52.218;9.884;2023-08-12T05:01:07;19.10;99.90
16879;DHT22;8556;52.218;9.884;2023-08-12T05:03:34;18.90;99.90
16879;DHT22;8556;52.218;9.884;2023-08-12T05:06:02;18.90;99.90
16879;DHT22;8556;52.218;9.884;2023-08-12T05:08:30;18.90;99.90
16879;DHT22;8556;52.218;9.884;2023-08-12T05:10:57;18.90;99.90
16879;DHT22;8556;52.218;9.884;2023-08-12T05:13:24;18.90;99.90
16879;DHT22;8556;52.218;9.884;2023-08-12T05:15:53;18.90;99.90
16879;DHT22;8556;52.218;9.884;2023-08-12T05:18:22;18.90;99.90
16879;DHT22;8556;52.218;9.884;2023-08-12T05:20:51;18.90;99.90
16879;DHT22;8556;52.218;9.884;2023-08-12T05:23:20;18.90;99.90
16879;DHT22;8556;52.218;9.884;2023-08-12T05:25:47;18.90;99.90
16879;DHT22;8556;52.218;9.884;2023-08-12T05:28:14;18.90;99.90
16879;DHT22;8556;52.218;9.884;2023-08-12T05:30:40;19.00;99.90
16879;DHT22;8556;52.218;9.884;2023-08-12T05:33:07;19.00;99.90
16879;DHT22;8556;52.218;9.884;2023-08-12T05:35:34;19.10;99.90
16879;DHT22;8556;52.218;9.884;2023-08-12T05:38:01;19.10;99.90
16879;DHT22;8556;52.218;9.884;2023-08-12T05:40:29;19.10;99.90
16879;DHT22;8556;52.218;9.884;2023-08-12T05:42:56;19.20;99.90
16879;DHT22;8556;52.218;9.884;2023-08-12T05:45:23;19.30;99.90
16879;DHT22;8556;52.218;9.884;2023-08-12T05:47:50;19.40;99.90
16879;DHT22;8556;52.218;9.884;2023-08-12T05:50:17;19.40;99.90
16879;DHT22;8556;52.218;9.884;2023-08-12T05:52:43;19.50;99.90
16879;DHT22;8556;52.218;9.884;2023-08-12T05:55:10;19.50;99.90
16879;DHT22;8556;52.218;9.884;2023-08-12T05:57:38;19.50;99.90
16879;DHT22;8556;52.218;9.884;2023-08-12T06:00:06;19.70;99.90
16879;DHT22;8556;52.218;9.884;2023-08-12T06:02:33;19.50;99.90
16879;DHT22;8556;52.218;9.884;2023-08-12T06:05:01;19.60;99.90
16879;DHT22;8556;52.218;9.884;2023-08-12T06:07:28;19.50;99.90
16879;DHT22;8556;52.218;9.884;2023-08-12T06:09:55;19.60;99.90
16879;DHT22;8556;52.218;9.884;2023-08-12T06:12:22;19.70;99.90
16879;DHT22;8556;52.218;9.884;2023-08-12T06:14:50;19.70;99.90
16879;DHT22;8556;52.218;9.884;2023-08-12T06:17:17;19.70;99.90
16879;DHT22;8556;52.218;9.884;2023-08-12T06:19:43;19.80;99.90
16879;DHT22;8556;52.218;9.884;2023-08-12T06:22:10;19.80;99.90
16879;DHT22;8556;52.218;9.884;2023-08-12T06:24:37;19.80;99.90
16879;DHT22;8556;52.218;9.884;2023-08-12T06:27:05;19.80;99.90
16879;DHT22;8556;52.218;9.884;2023-08-12T06:29:31;19.70;99.90
16879;DHT22;8556;52.218;9.884;2023-08-12T06:32:00;19.80;99.90
16879;DHT22;8556;52.218;9.884;2023-08-12T06:34:26;19.70;99.90
16879;DHT22;8556;52.218;9.884;2023-08-12T06:36:53;19.80;99.90
16879;DHT22;8556;52.218;9.884;2023-08-12T06:39:20;19.80;99.90
16879;DHT22;8556;52.218;9.884;2023-08-12T06:41:47;20.00;99.90
16879;DHT22;8556;52.218;9.884;2023-08-12T06:44:13;20.00;99.90
16879;DHT22;8556;52.218;9.884;2023-08-12T06:46:41;20.00;99.90
16879;DHT22;8556;52.218;9.884;2023-08-12T06:49:09;20.10;99.90
16879;DHT22;8556;52.218;9.884;2023-08-12T06:51:36;20.10;99.90
16879;DHT22;8556;52.218;9.884;2023-08-12T06:54:03;20.20;99.90
16879;DHT22;8556;52.218;9.884;2023-08-12T06:56:30;20.30;99.90
16879;DHT22;8556;52.218;9.884;2023-08-12T06:58:56;20.30;99.90
16879;DHT22;8556;52.218;9.884;2023-08-12T07:01:23;20.40;99.90
16879;DHT22;8556;52.218;9.884;2023-08-12T07:03:50;20.50;99.90
16879;DHT22;8556;52.218;9.884;2023-08-12T07:06:18;20.70;99.90
16879;DHT22;8556;52.218;9.884;2023-08-12T07:08:45;20.70;99.90
16879;DHT22;8556;52.218;9.884;2023-08-12T07:11:12;20.80;99.90
16879;DHT22;8556;52.218;9.884;2023-08-12T07:13:39;20.70;99.90
16879;DHT22;8556;52.218;9.884;2023-08-12T07:16:07;20.90;99.90
16879;DHT22;8556;52.218;9.884;2023-08-12T07:18:34;20.80;99.90
16879;DHT22;8556;52.218;9.884;2023-08-12T07:21:00;21.10;99.90
16879;DHT22;8556;52.218;9.884;2023-08-12T07:23:29;21.10;99.90
16879;DHT22;8556;52.218;9.884;2023-08-12T07:25:56;21.10;99.90
16879;DHT22;8556;52.218;9.884;2023-08-12T07:28:22;20.90;99.90
16879;DHT22;8556;52.218;9.884;2023-08-12T07:30:49;21.00;99.90
16879;DHT22;8556;52.218;9.884;2023-08-12T07:33:19;20.90;99.90
16879;DHT22;8556;52.218;9.884;2023-08-12T07:35:46;20.90;99.90
16879;DHT22;8556;52.218;9.884;2023-08-12T07:38:13;20.90;99.90
16879;DHT22;8556;52.218;9.884;2023-08-12T07:40:41;20.80;99.90
16879;DHT22;8556;52.218;9.884;2023-08-12T07:43:08;20.90;99.90
16879;DHT22;8556;52.218;9.884;2023-08-12T07:45:35;20.90;99.90
16879;DHT22;8556;52.218;9.884;2023-08-12T07:48:02;20.90;99.90
16879;DHT22;8556;52.218;9.884;2023-08-12T07:50:29;21.00;99.90
16879;DHT22;8556;52.218;9.884;2023-08-12T07:52:56;21.10;99.90
16879;DHT22;8556;52.218;9.884;2023-08-12T07:55:23;21.10;99.90
16879;DHT22;8556;52.218;9.884;2023-08-12T07:57:51;21.10;99.90
16879;DHT22;8556;52.218;9.884;2023-08-12T08:00:18;21.20;99.90
16879;DHT22;8556;52.218;9.884;2023-08-12T08:02:45;21.30;99.90
16879;DHT22;8556;52.218;9.884;2023-08-12T08:05:12;21.30;99.90
16879;DHT22;8556;52.218;9.884;2023-08-12T08:07:39;21.30;99.90
16879;DHT22;8556;52.218;9.884;2023-08-12T08:10:07;21.50;99.90
16879;DHT22;8556;52.218;9.884;2023-08-12T08:12:34;21.60;99.90
16879;DHT22;8556;52.218;9.884;2023-08-12T08:15:03;21.70;99.90
16879;DHT22;8556;52.218;9.884;2023-08-12T08:17:30;21.60;99.90
16879;DHT22;8556;52.218;9.884;2023-08-12T08:19:57;21.80;99.90
16879;DHT22;8556;52.218;9.884;2023-08-12T08:22:24;21.70;99.90
16879;DHT22;8556;52.218;9.884;2023-08-12T08:24:50;21.50;99.90
16879;DHT22;8556;52.218;9.884;2023-08-12T08:27:17;21.50;99.90
16879;DHT22;8556;52.218;9.884;2023-08-12T08:29:44;21.50;99.90
16879;DHT22;8556;52.218;9.884;2023-08-12T08:32:12;21.50;99.90
16879;DHT22;8556;52.218;9.884;2023-08-12T08:34:39;21.40;99.90
16879;DHT22;8556;52.218;9.884;2023-08-12T08:37:06;21.30;99.90
16879;DHT22;8556;52.218;9.884;2023-08-12T08:39:33;21.30;99.90
16879;DHT22;8556;52.218;9.884;2023-08-12T08:42:00;21.30;99.90
16879;DHT22;8556;52.218;9.884;2023-08-12T08:44:29;21.30;99.90
16879;DHT22;8556;52.218;9.884;2023-08-12T08:46:58;21.30;99.90
16879;DHT22;8556;52.218;9.884;2023-08-12T08:49:28;21.40;99.90
16879;DHT22;8556;52.218;9.884;2023-08-12T08:51:58;21.30;99.90
16879;DHT22;8556;52.218;9.884;2023-08-12T08:54:26;21.30;99.90
16879;DHT22;8556;52.218;9.884;2023-08-12T08:56:53;21.40;99.90
16879;DHT22;8556;52.218;9.884;2023-08-12T08:59:20;21.50;99.90
16879;DHT22;8556;52.218;9.884;2023-08-12T09:01:49;21.40;99.90
16879;DHT22;8556;52.218;9.884;2023-08-12T09:04:17;21.40;99.90
16879;DHT22;8556;52.218;9.884;2023-08-12T09:06:46;21.30;99.90
16879;DHT22;8556;52.218;9.884;2023-08-12T09:09:16;21.40;99.90
16879;DHT22;8556;52.218;9.884;2023-08-12T09:11:45;21.50;99.90
16879;DHT22;8556;52.218;9.884;2023-08-12T09:14:12;21.60;99.90
16879;DHT22;8556;52.218;9.884;2023-08-12T09:16:38;21.60;99.90
16879;DHT22;8556;52.218;9.884;2023-08-12T09:19:06;21.80;99.90
16879;DHT22;8556;52.218;9.884;2023-08-12T09:21:32;22.20;99.90
16879;DHT22;8556;52.218;9.884;2023-08-12T09:24:03;22.50;99.90
16879;DHT22;8556;52.218;9.884;2023-08-12T09:26:30;22.80;99.90
16879;DHT22;8556;52.218;9.884;2023-08-12T09:28:59;23.20;99.90
16879;DHT22;8556;52.218;9.884;2023-08-12T09:31:27;23.40;99.90
16879;DHT22;8556;52.218;9.884;2023-08-12T09:33:54;23.30;99.90
16879;DHT22;8556;52.218;9.884;2023-08-12T09:36:23;23.40;99.90
16879;DHT22;8556;52.218;9.884;2023-08-12T09:38:51;23.50;99.90
16879;DHT22;8556;52.218;9.884;2023-08-12T09:41:22;23.50;99.90
16879;DHT22;8556;52.218;9.884;2023-08-12T09:43:50;23.90;99.90
16879;DHT22;8556;52.218;9.884;2023-08-12T09:46:20;24.20;99.90
16879;DHT22;8556;52.218;9.884;2023-08-12T09:48:49;24.90;99.90
16879;DHT22;8556;52.218;9.884;2023-08-12T09:51:17;25.30;99.90
16879;DHT22;8556;52.218;9.884;2023-08-12T09:53:44;25.90;99.90
16879;DHT22;8556;52.218;9.884;2023-08-12T09:56:12;25.70;99.90
16879;DHT22;8556;52.218;9.884;2023-08-12T09:58:41;25.80;99.90
16879;DHT22;8556;52.218;9.884;2023-08-12T10:01:11;25.70;99.90
16879;DHT22;8556;52.218;9.884;2023-08-12T10:03:40;25.20;99.90
16879;DHT22;8556;52.218;9.884;2023-08-12T10:06:08;24.70;99.90
16879;DHT22;8556;52.218;9.884;2023-08-12T10:08:35;24.70;99.90
16879;DHT22;8556;52.218;9.884;2023-08-12T10:11:03;24.70;99.90
16879;DHT22;8556;52.218;9.884;2023-08-12T10:13:30;24.10;99.90
16879;DHT22;8556;52.218;9.884;2023-08-12T10:15:58;24.20;99.90
16879;DHT22;8556;52.218;9.884;2023-08-12T10:18:28;24.10;99.90
16879;DHT22;8556;52.218;9.884;2023-08-12T10:20:57;24.10;99.90
16879;DHT22;8556;52.218;9.884;2023-08-12T10:23:26;24.00;99.90
16879;DHT22;8556;52.218;9.884;2023-08-12T10:25:55;24.00;99.90
16879;DHT22;8556;52.218;9.884;2023-08-12T10:28:24;24.00;99.90
16879;DHT22;8556;52.218;9.884;2023-08-12T10:30:51;23.80;99.90
16879;DHT22;8556;52.218;9.884;2023-08-12T10:33:20;23.80;99.90
16879;DHT22;8556;52.218;9.884;2023-08-12T10:35:48;23.80;99.90
16879;DHT22;8556;52.218;9.884;2023-08-12T10:38:19;23.90;99.90
16879;DHT22;8556;52.218;9.884;2023-08-12T10:40:47;23.90;99.90
16879;DHT22;8556;52.218;9.884;2023-08-12T10:43:14;23.90;99.90
16879;DHT22;8556;52.218;9.884;2023-08-12T10:45:43;23.80;99.90
16879;DHT22;8556;52.218;9.884;2023-08-12T10:48:16;24.00;99.90
16879;DHT22;8556;52.218;9.884;2023-08-12T10:50:45;24.10;99.90
16879;DHT22;8556;52.218;9.884;2023-08-12T10:53:22;24.60;99.90
16879;DHT22;8556;52.218;9.884;2023-08-12T10:55:55;24.70;99.90
16879;DHT22;8556;52.218;9.884;2023-08-12T10:58:27;24.60;99.90
16879;DHT22;8556;52.218;9.884;2023-08-12T11:00:56;25.20;99.90
16879;DHT22;8556;52.218;9.884;2023-08-12T11:03:23;25.10;99.90
16879;DHT22;8556;52.218;9.884;2023-08-12T11:05:53;26.00;99.90
16879;DHT22;8556;52.218;9.884;2023-08-12T11:08:26;26.40;99.90
16879;DHT22;8556;52.218;9.884;2023-08-12T11:10:55;26.90;99.90
16879;DHT22;8556;52.218;9.884;2023-08-12T11:13:23;27.20;99.90
16879;DHT22;8556;52.218;9.884;2023-08-12T11:16:05;27.00;99.90
16879;DHT22;8556;52.218;9.884;2023-08-12T11:18:33;27.00;99.90
16879;DHT22;8556;52.218;9.884;2023-08-12T11:21:01;27.80;99.90
16879;DHT22;8556;52.218;9.884;2023-08-12T11:23:29;27.00;99.90
16879;DHT22;8556;52.218;9.884;2023-08-12T11:25:58;27.10;99.90
16879;DHT22;8556;52.218;9.884;2023-08-12T11:28:25;27.00;99.90
16879;DHT22;8556;52.218;9.884;2023-08-12T11:30:52;27.10;99.90
16879;DHT22;8556;52.218;9.884;2023-08-12T11:33:18;27.30;99.90
16879;DHT22;8556;52.218;9.884;2023-08-12T11:35:46;27.60;99.90
16879;DHT22;8556;52.218;9.884;2023-08-12T11:38:15;27.90;99.90
16879;DHT22;8556;52.218;9.884;2023-08-12T11:40:42;28.10;99.90
16879;DHT22;8556;52.218;9.884;2023-08-12T11:43:09;28.20;99.90
16879;DHT22;8556;52.218;9.884;2023-08-12T11:45:36;28.10;99.90
16879;DHT22;8556;52.218;9.884;2023-08-12T11:48:04;27.90;99.90
16879;DHT22;8556;52.218;9.884;2023-08-12T11:50:31;28.40;99.90
16879;DHT22;8556;52.218;9.884;2023-08-12T11:52:58;28.10;99.90
16879;DHT22;8556;52.218;9.884;2023-08-12T11:55:27;27.50;99.90
16879;DHT22;8556;52.218;9.884;2023-08-12T11:57:53;27.30;99.90
16879;DHT22;8556;52.218;9.884;2023-08-12T12:00:20;26.90;99.90
16879;DHT22;8556;52.218;9.884;2023-08-12T12:02:50;26.80;99.90
16879;DHT22;8556;52.218;9.884;2023-08-12T12:05:18;26.60;99.90
16879;DHT22;8556;52.218;9.884;2023-08-12T12:07:47;26.70;99.90
16879;DHT22;8556;52.218;9.884;2023-08-12T12:10:18;26.30;99.90
16879;DHT22;8556;52.218;9.884;2023-08-12T12:12:47;26.40;99.90
16879;DHT22;8556;52.218;9.884;2023-08-12T12:15:14;26.40;99.90
16879;DHT22;8556;52.218;9.884;2023-08-12T12:17:41;26.30;99.90
16879;DHT22;8556;52.218;9.884;2023-08-12T12:20:09;26.50;99.90
16879;DHT22;8556;52.218;9.884;2023-08-12T12:22:37;26.80;99.90
16879;DHT22;8556;52.218;9.884;2023-08-12T12:25:11;26.80;99.90
16879;DHT22;8556;52.218;9.884;2023-08-12T12:27:38;26.50;99.90
16879;DHT22;8556;52.218;9.884;2023-08-12T12:30:08;26.10;99.90
16879;DHT22;8556;52.218;9.884;2023-08-12T12:32:35;26.10;99.90
16879;DHT22;8556;52.218;9.884;2023-08-12T12:35:03;26.20;99.90
16879;DHT22;8556;52.218;9.884;2023-08-12T12:37:30;26.10;99.90
16879;DHT22;8556;52.218;9.884;2023-08-12T12:39:56;26.20;99.90
16879;DHT22;8556;52.218;9.884;2023-08-12T12:42:23;26.10;99.90
16879;DHT22;8556;52.218;9.884;2023-08-12T12:44:50;26.00;99.90
16879;DHT22;8556;52.218;9.884;2023-08-12T12:47:19;26.00;99.90
16879;DHT22;8556;52.218;9.884;2023-08-12T12:49:46;26.10;99.90
16879;DHT22;8556;52.218;9.884;2023-08-12T12:52:13;25.90;99.90
16879;DHT22;8556;52.218;9.884;2023-08-12T12:54:40;25.70;99.90
16879;DHT22;8556;52.218;9.884;2023-08-12T12:57:06;25.40;99.90
16879;DHT22;8556;52.218;9.884;2023-08-12T12:59:33;25.40;99.90
16879;DHT22;8556;52.218;9.884;2023-08-12T13:02:00;25.10;99.90
16879;DHT22;8556;52.218;9.884;2023-08-12T13:04:29;24.90;99.90
16879;DHT22;8556;52.218;9.884;2023-08-12T13:06:55;24.70;99.90
16879;DHT22;8556;52.218;9.884;2023-08-12T13:09:23;24.20;99.90
16879;DHT22;8556;52.218;9.884;2023-08-12T13:11:49;23.50;99.90
16879;DHT22;8556;52.218;9.884;2023-08-12T13:14:17;23.30;99.90
16879;DHT22;8556;52.218;9.884;2023-08-12T13:16:46;23.10;99.90
16879;DHT22;8556;52.218;9.884;2023-08-12T13:19:13;23.20;99.90
16879;DHT22;8556;52.218;9.884;2023-08-12T13:21:41;23.20;99.90
16879;DHT22;8556;52.218;9.884;2023-08-12T13:24:08;23.30;99.90
16879;DHT22;8556;52.218;9.884;2023-08-12T13:26:35;23.20;99.90
16879;DHT22;8556;52.218;9.884;2023-08-12T13:29:01;23.30;99.90
16879;DHT22;8556;52.218;9.884;2023-08-12T13:31:29;23.20;99.90
16879;DHT22;8556;52.218;9.884;2023-08-12T13:33:55;23.30;99.90
16879;DHT22;8556;52.218;9.884;2023-08-12T13:36:23;23.60;99.90
16879;DHT22;8556;52.218;9.884;2023-08-12T13:38:51;23.70;99.90
16879;DHT22;8556;52.218;9.884;2023-08-12T13:41:18;24.00;99.90
16879;DHT22;8556;52.218;9.884;2023-08-12T13:43:45;23.90;99.90
16879;DHT22;8556;52.218;9.884;2023-08-12T13:46:11;23.80;99.90
16879;DHT22;8556;52.218;9.884;2023-08-12T13:48:38;24.10;99.90
16879;DHT22;8556;52.218;9.884;2023-08-12T13:51:06;24.10;99.90
16879;DHT22;8556;52.218;9.884;2023-08-12T13:53:33;24.30;99.90
16879;DHT22;8556;52.218;9.884;2023-08-12T13:56:01;24.60;99.90
16879;DHT22;8556;52.218;9.884;2023-08-12T13:58:28;24.40;99.90
16879;DHT22;8556;52.218;9.884;2023-08-12T14:00:55;24.50;99.90
16879;DHT22;8556;52.218;9.884;2023-08-12T14:03:22;24.90;99.90
16879;DHT22;8556;52.218;9.884;2023-08-12T14:05:48;24.80;99.90
16879;DHT22;8556;52.218;9.884;2023-08-12T14:08:15;24.90;99.90
16879;DHT22;8556;52.218;9.884;2023-08-12T14:10:42;24.80;99.90
16879;DHT22;8556;52.218;9.884;2023-08-12T14:13:10;25.00;99.90
16879;DHT22;8556;52.218;9.884;2023-08-12T14:15:37;25.00;99.90
16879;DHT22;8556;52.218;9.884;2023-08-12T14:18:04;25.00;99.90
16879;DHT22;8556;52.218;9.884;2023-08-12T14:20:31;25.00;99.90
16879;DHT22;8556;52.218;9.884;2023-08-12T14:22:58;25.20;99.90
16879;DHT22;8556;52.218;9.884;2023-08-12T14:25:25;25.40;99.90
16879;DHT22;8556;52.218;9.884;2023-08-12T14:27:52;25.30;99.90
16879;DHT22;8556;52.218;9.884;2023-08-12T14:30:24;25.40;99.90
16879;DHT22;8556;52.218;9.884;2023-08-12T14:32:51;25.50;99.90
16879;DHT22;8556;52.218;9.884;2023-08-12T14:35:18;25.50;99.90
16879;DHT22;8556;52.218;9.884;2023-08-12T14:37:45;25.90;99.90
16879;DHT22;8556;52.218;9.884;2023-08-12T14:40:12;26.30;99.90
16879;DHT22;8556;52.218;9.884;2023-08-12T14:42:39;26.70;99.90
16879;DHT22;8556;52.218;9.884;2023-08-12T14:45:06;26.80;99.90
16879;DHT22;8556;52.218;9.884;2023-08-12T14:47:35;27.00;99.90
16879;DHT22;8556;52.218;9.884;2023-08-12T14:50:02;26.80;99.90
16879;DHT22;8556;52.218;9.884;2023-08-12T14:52:29;26.30;99.90
16879;DHT22;8556;52.218;9.884;2023-08-12T14:54:56;26.00;99.90
16879;DHT22;8556;52.218;9.884;2023-08-12T14:57:23;25.90;99.90
16879;DHT22;8556;52.218;9.884;2023-08-12T14:59:50;25.80;99.90
16879;DHT22;8556;52.218;9.884;2023-08-12T15:02:17;25.80;99.90
16879;DHT22;8556;52.218;9.884;2023-08-12T15:04:45;25.90;99.90
16879;DHT22;8556;52.218;9.884;2023-08-12T15:07:13;25.90;99.90
16879;DHT22;8556;52.218;9.884;2023-08-12T15:09:41;26.00;99.90
16879;DHT22;8556;52.218;9.884;2023-08-12T15:12:08;26.10;99.90
16879;DHT22;8556;52.218;9.884;2023-08-12T15:14:35;26.20;99.90
16879;DHT22;8556;52.218;9.884;2023-08-12T15:17:02;26.20;99.90
16879;DHT22;8556;52.218;9.884;2023-08-12T15:19:29;26.20;99.90
16879;DHT22;8556;52.218;9.884;2023-08-12T15:21:58;25.90;99.90
16879;DHT22;8556;52.218;9.884;2023-08-12T15:24:25;26.00;99.90
16879;DHT22;8556;52.218;9.884;2023-08-12T15:26:52;25.80;99.90
16879;DHT22;8556;52.218;9.884;2023-08-12T15:29:19;25.70;99.90
16879;DHT22;8556;52.218;9.884;2023-08-12T15:31:46;25.60;99.90
16879;DHT22;8556;52.218;9.884;2023-08-12T15:34:12;25.30;99.90
16879;DHT22;8556;52.218;9.884;2023-08-12T15:36:39;24.30;99.90
16879;DHT22;8556;52.218;9.884;2023-08-12T15:39:08;23.60;99.90
16879;DHT22;8556;52.218;9.884;2023-08-12T15:41:40;22.90;99.90
16879;DHT22;8556;52.218;9.884;2023-08-12T15:44:08;22.40;99.90
16879;DHT22;8556;52.218;9.884;2023-08-12T15:46:35;22.10;99.90